Leeper, Pennsylvania
Current Conditions -  °F | °C
As of 2:53 PM on Monday 24 Nov 2014 (Local Time) from KDUJ Reporting Station
Broken Clouds Broken Clouds  
Wind Chill: 65°   Ceiling: 9000
Heat Index: 65°   Visibility: 10mi
Dew Point: 40°   Wind: 22mph
Humidity: 40%   Direction: 230°SW
Pressure: 29.43"   Gusts: 44mph
Location:  41.37°N, 79.3°W
Report Text: KDUJ 241953Z AUTO 23019G38KT 10SM SCT070 BKN090 18/04 A2943 RMK AO2 PK WND 23039/1932 SLP960 T01830044
Loading
Personal Weather Stations






























Interactive Weather Map New forecast layout! Learn more

10-Day Weather Forecast

Advertisements
Track Severe Weather on mobile